createdAt,value
2019-03-20T00:00:08.862Z,14.30
2019-03-20T00:02:44.826Z,14.17
2019-03-20T00:05:20.295Z,12.70
2019-03-20T00:07:54.143Z,11.20
2019-03-20T00:10:28.294Z,13.57
2019-03-20T00:13:01.641Z,9.37
2019-03-20T00:15:35.475Z,14.37
2019-03-20T00:18:09.674Z,9.80
2019-03-20T00:20:52.653Z,9.93
2019-03-20T00:23:38.939Z,8.57
2019-03-20T00:26:13.097Z,10.73
2019-03-20T00:28:47.507Z,9.13
2019-03-20T00:31:21.088Z,8.27
2019-03-20T00:33:54.537Z,10.57
2019-03-20T00:36:29.569Z,11.33
2019-03-20T00:39:08.406Z,9.10
2019-03-20T00:41:42.610Z,14.07
2019-03-20T00:44:16.474Z,11.20
2019-03-20T00:46:59.850Z,7.40
2019-03-20T00:49:33.374Z,8.37
2019-03-20T00:52:07.361Z,10.83
2019-03-20T00:54:41.468Z,8.30
2019-03-20T00:57:15.593Z,9.10
2019-03-20T00:59:58.689Z,10.37
2019-03-20T01:02:41.504Z,9.03
2019-03-20T01:05:24.827Z,8.00
2019-03-20T01:07:59.906Z,8.53
2019-03-20T01:10:33.858Z,8.13
2019-03-20T01:13:07.729Z,7.73
2019-03-20T01:15:42.238Z,11.33
2019-03-20T01:18:16.171Z,6.60
2019-03-20T01:20:50.404Z,5.67
2019-03-20T01:23:24.076Z,8.00
2019-03-20T01:26:07.779Z,7.63
2019-03-20T01:28:42.118Z,7.17
2019-03-20T01:31:15.407Z,8.33
2019-03-20T01:33:48.928Z,9.50
2019-03-20T01:36:23.048Z,9.80
2019-03-20T01:39:11.475Z,8.27
2019-03-20T01:41:44.816Z,11.93
2019-03-20T01:44:19.011Z,10.37
2019-03-20T01:47:07.682Z,8.33
2019-03-20T01:49:43.036Z,8.87
2019-03-20T01:52:16.967Z,10.63
2019-03-20T01:55:06.274Z,6.53
2019-03-20T01:57:43.708Z,10.07
2019-03-20T02:00:16.039Z,7.33
2019-03-20T02:02:59.355Z,7.90
2019-03-20T02:05:36.242Z,8.20
2019-03-20T02:08:09.614Z,7.90
2019-03-20T02:10:54.678Z,8.03
2019-03-20T02:13:28.789Z,8.60
2019-03-20T02:16:02.788Z,15.23
2019-03-20T02:18:46.673Z,10.77
2019-03-20T02:21:20.221Z,9.67
2019-03-20T02:23:54.394Z,8.33
2019-03-20T02:26:28.031Z,10.17
2019-03-20T02:29:02.298Z,9.40
2019-03-20T02:31:36.683Z,7.77
2019-03-20T02:34:10.243Z,6.30
2019-03-20T02:36:45.846Z,7.20
2019-03-20T02:39:35.050Z,10.70
2019-03-20T02:42:18.318Z,9.73
2019-03-20T02:44:52.813Z,8.43
2019-03-20T02:47:41.940Z,8.40
2019-03-20T02:50:15.341Z,9.77
2019-03-20T02:52:50.446Z,10.37
2019-03-20T02:55:36.162Z,10.87
2019-03-20T02:58:18.264Z,7.43
2019-03-20T03:00:52.047Z,13.30
2019-03-20T03:03:25.780Z,9.17
2019-03-20T03:06:07.152Z,11.53
2019-03-20T03:08:37.360Z,16.47
2019-03-20T03:11:10.914Z,15.97
2019-03-20T03:13:46.211Z,10.53
2019-03-20T03:16:20.437Z,12.00
2019-03-20T03:19:03.494Z,14.30
2019-03-20T03:21:38.482Z,12.90
2019-03-20T03:24:21.276Z,16.40
2019-03-20T03:27:04.325Z,16.57
2019-03-20T03:29:52.813Z,13.33
2019-03-20T03:32:36.164Z,13.17
2019-03-20T03:35:22.553Z,13.33
2019-03-20T03:37:57.877Z,13.23
2019-03-20T03:40:40.497Z,12.90
2019-03-20T03:43:14.296Z,14.03
2019-03-20T03:45:57.949Z,11.33
2019-03-20T03:48:32.345Z,10.43
2019-03-20T03:51:15.435Z,21.00
2019-03-20T03:53:50.143Z,10.20
2019-03-20T03:56:24.732Z,11.33
2019-03-20T03:58:58.798Z,14.63
2019-03-20T04:01:33.157Z,14.37
2019-03-20T04:04:16.036Z,13.50
2019-03-20T04:06:59.517Z,20.40
2019-03-20T04:09:33.663Z,11.50
2019-03-20T04:12:17.145Z,15.33
2019-03-20T04:14:51.747Z,16.20
2019-03-20T04:17:35.087Z,18.30
2019-03-20T04:20:09.967Z,16.13
2019-03-20T04:22:52.662Z,15.27
2019-03-20T04:25:25.800Z,11.30
2019-03-20T04:28:00.430Z,16.50
2019-03-20T04:30:34.206Z,13.53
2019-03-20T04:33:17.504Z,16.20
2019-03-20T04:35:51.714Z,15.57
2019-03-20T04:38:25.217Z,15.20
2019-03-20T04:41:03.944Z,15.33
2019-03-20T04:46:55.679Z,15.00
2019-03-20T04:49:38.712Z,16.03
2019-03-20T04:52:21.524Z,18.47
2019-03-20T04:55:04.123Z,14.47
2019-03-20T04:57:38.795Z,17.70
2019-03-20T05:00:14.483Z,18.40
2019-03-20T05:02:48.367Z,16.77
2019-03-20T05:05:31.632Z,16.07
2019-03-20T05:08:05.061Z,22.53
2019-03-20T05:10:51.413Z,26.53
2019-03-20T05:13:24.850Z,25.43
2019-03-20T05:15:58.778Z,23.63
2019-03-20T05:18:33.009Z,23.13
2019-03-20T05:21:15.287Z,25.23
2019-03-20T05:23:49.145Z,21.57
2019-03-20T05:26:23.809Z,24.63
2019-03-20T05:28:57.623Z,24.23
2019-03-20T05:31:31.978Z,31.20
2019-03-20T05:34:15.157Z,34.27
2019-03-20T05:37:10.373Z,31.97
2019-03-20T05:39:50.080Z,28.23
2019-03-20T05:42:33.719Z,31.20
2019-03-20T05:45:08.434Z,29.93
2019-03-20T05:47:59.373Z,27.17
2019-03-20T05:50:31.137Z,35.03
2019-03-20T05:53:15.587Z,34.10
2019-03-20T05:56:00.454Z,33.03
2019-03-20T05:58:34.336Z,28.30
2019-03-20T06:01:19.712Z,34.90
2019-03-20T06:04:03.424Z,28.23
2019-03-20T06:06:37.859Z,31.57
2019-03-20T06:09:20.994Z,32.83
2019-03-20T06:11:56.585Z,36.33
2019-03-20T06:14:31.258Z,34.50
2019-03-20T06:17:06.085Z,30.27
2019-03-20T06:19:49.860Z,34.60
2019-03-20T06:22:24.046Z,34.37
2019-03-20T06:24:58.059Z,33.60
2019-03-20T06:27:41.192Z,36.37
2019-03-20T06:30:15.661Z,31.63
2019-03-20T06:32:49.440Z,35.93
2019-03-20T06:35:33.278Z,36.30
2019-03-20T06:38:06.726Z,36.03
2019-03-20T06:40:40.503Z,36.77
2019-03-20T06:43:14.344Z,40.73
2019-03-20T06:45:48.091Z,35.57
2019-03-20T06:48:21.635Z,32.87
2019-03-20T06:50:55.662Z,40.97
2019-03-20T06:53:39.117Z,35.97
2019-03-20T06:56:13.172Z,35.07
2019-03-20T06:58:47.904Z,40.53
2019-03-20T07:01:34.357Z,38.13
2019-03-20T07:04:31.734Z,40.57
2019-03-20T07:07:27.538Z,38.20
2019-03-20T07:10:11.212Z,41.80
2019-03-20T07:12:45.696Z,35.73
2019-03-20T07:15:20.098Z,43.50
2019-03-20T07:17:54.237Z,38.50
2019-03-20T07:20:37.484Z,47.15
2019-03-20T07:23:10.690Z,39.00
2019-03-20T07:25:44.184Z,42.63
2019-03-20T07:28:27.147Z,41.20
2019-03-20T07:31:15.194Z,46.07
2019-03-20T07:33:54.945Z,45.83
2019-03-20T07:36:28.203Z,44.07
2019-03-20T07:39:01.776Z,41.00
2019-03-20T07:41:46.163Z,46.33
2019-03-20T07:44:18.278Z,38.33
2019-03-20T07:46:52.163Z,46.33
2019-03-20T07:49:25.915Z,37.73
2019-03-20T07:52:00.141Z,40.27
2019-03-20T07:54:43.162Z,43.23
2019-03-20T07:57:16.699Z,42.77
2019-03-20T07:59:50.173Z,39.13
2019-03-20T08:02:23.596Z,47.23
2019-03-20T08:04:57.474Z,35.73
2019-03-20T08:07:31.468Z,39.50
2019-03-20T08:10:14.815Z,37.00
2019-03-20T08:12:57.612Z,37.27
2019-03-20T08:15:40.423Z,38.77
2019-03-20T08:18:23.701Z,37.30
2019-03-20T08:20:58.331Z,40.13
2019-03-20T08:23:41.544Z,33.13
2019-03-20T08:26:16.196Z,39.13
2019-03-20T08:29:02.455Z,34.63
2019-03-20T08:31:45.835Z,39.00
2019-03-20T08:34:19.605Z,34.43
2019-03-20T08:36:53.439Z,34.90
2019-03-20T08:39:27.840Z,36.33
2019-03-20T08:42:01.923Z,36.17
2019-03-20T08:44:35.689Z,36.53
2019-03-20T08:47:09.579Z,37.53
2019-03-20T08:49:43.824Z,45.60
2019-03-20T08:52:17.362Z,40.93
2019-03-20T08:54:59.833Z,38.43
2019-03-20T08:57:43.144Z,36.73
2019-03-20T09:00:18.604Z,41.70
2019-03-20T09:02:53.364Z,45.00
2019-03-20T09:05:35.996Z,38.47
2019-03-20T09:08:29.248Z,36.47
2019-03-20T09:11:00.050Z,40.90
2019-03-20T09:13:42.380Z,36.90
2019-03-20T09:16:15.997Z,40.77
2019-03-20T09:18:50.671Z,37.37
2019-03-20T09:21:24.681Z,35.03
2019-03-20T09:23:58.442Z,32.80
2019-03-20T09:26:32.331Z,34.13
2019-03-20T09:29:05.862Z,35.53
2019-03-20T09:31:39.020Z,40.20
2019-03-20T09:34:12.974Z,39.40
2019-03-20T09:36:46.575Z,34.23
2019-03-20T09:39:20.654Z,35.37
2019-03-20T09:42:03.137Z,34.00
2019-03-20T09:44:37.133Z,38.03
2019-03-20T09:47:19.184Z,35.83
2019-03-20T09:49:52.646Z,40.70
2019-03-20T09:52:26.482Z,35.47
2019-03-20T09:55:00.347Z,38.07
2019-03-20T09:57:34.258Z,33.83
2019-03-20T10:00:24.848Z,35.93
2019-03-20T10:03:09.892Z,33.43
2019-03-20T10:05:43.021Z,37.97
2019-03-20T10:08:26.381Z,32.43
2019-03-20T10:10:59.502Z,30.73
2019-03-20T10:13:35.067Z,35.70
2019-03-20T10:16:08.484Z,27.73
2019-03-20T10:18:41.733Z,36.73
2019-03-20T10:21:24.163Z,29.90
2019-03-20T10:23:57.753Z,33.73
2019-03-20T10:26:31.196Z,32.10
2019-03-20T10:29:05.944Z,32.33
2019-03-20T10:31:39.836Z,32.60
2019-03-20T10:34:13.803Z,31.57
2019-03-20T10:36:47.175Z,35.70
2019-03-20T10:39:20.981Z,34.10
2019-03-20T10:41:54.415Z,30.33
2019-03-20T10:44:32.259Z,27.17
2019-03-20T10:47:13.206Z,29.13
2019-03-20T10:49:45.632Z,33.47
2019-03-20T10:52:28.091Z,31.20
2019-03-20T10:55:10.760Z,31.00
2019-03-20T10:57:44.361Z,33.20
2019-03-20T11:00:19.458Z,31.33
2019-03-20T11:02:52.975Z,29.50
2019-03-20T11:05:26.892Z,30.50
2019-03-20T11:08:00.633Z,31.67
2019-03-20T11:10:44.668Z,30.17
2019-03-20T11:13:18.225Z,27.00
2019-03-20T11:15:51.715Z,32.33
2019-03-20T11:18:25.238Z,31.07
2019-03-20T11:20:58.859Z,32.93
2019-03-20T11:23:32.292Z,34.67
2019-03-20T11:26:06.508Z,30.33
2019-03-20T11:28:39.930Z,29.53
2019-03-20T11:31:13.565Z,30.47
2019-03-20T11:33:47.659Z,29.13
2019-03-20T11:36:31.245Z,32.23
2019-03-20T11:39:07.054Z,35.27
2019-03-20T11:41:49.311Z,31.10
2019-03-20T11:44:23.064Z,33.23
2019-03-20T11:46:57.227Z,31.57
2019-03-20T11:49:30.844Z,31.47
2019-03-20T11:52:06.303Z,33.73
2019-03-20T11:54:39.849Z,30.87
2019-03-20T11:57:13.379Z,29.83
2019-03-20T11:59:46.840Z,32.33
2019-03-20T12:02:28.056Z,29.70
2019-03-20T12:05:05.671Z,30.80
2019-03-20T12:07:39.161Z,37.10
2019-03-20T12:10:15.271Z,31.47
2019-03-20T12:12:58.161Z,30.73
2019-03-20T12:15:31.920Z,31.03
2019-03-20T12:18:05.829Z,32.30
2019-03-20T12:20:39.270Z,33.67
2019-03-20T12:23:13.510Z,33.57
2019-03-20T12:25:47.191Z,28.63
2019-03-20T12:28:21.280Z,37.67
2019-03-20T12:31:03.804Z,35.00
2019-03-20T12:33:46.014Z,36.93
2019-03-20T12:36:19.726Z,31.70
2019-03-20T12:38:54.224Z,38.37
2019-03-20T12:41:28.087Z,35.57
2019-03-20T12:44:02.267Z,38.80
2019-03-20T12:46:41.338Z,41.13
2019-03-20T12:49:11.325Z,36.10
2019-03-20T12:51:54.196Z,41.47
2019-03-20T12:54:36.871Z,39.30
2019-03-20T12:57:10.646Z,44.50
2019-03-20T12:59:44.219Z,43.93
2019-03-20T13:02:18.390Z,46.93
2019-03-20T13:04:52.210Z,47.37
2019-03-20T13:07:25.752Z,50.13
2019-03-20T13:10:03.253Z,49.67
2019-03-20T13:12:33.663Z,48.37
2019-03-20T13:15:08.498Z,45.50
2019-03-20T13:17:41.652Z,48.97
2019-03-20T13:20:15.135Z,53.00
2019-03-20T13:23:00.311Z,56.10
2019-03-20T13:25:33.860Z,51.40
2019-03-20T13:28:07.357Z,50.57
2019-03-20T13:30:43.699Z,60.00
2019-03-20T13:33:25.280Z,54.30
2019-03-20T13:35:53.146Z,59.20
2019-03-20T13:38:26.257Z,68.53
2019-03-20T13:41:00.786Z,65.60
2019-03-20T13:43:47.120Z,63.40
2019-03-20T13:46:21.828Z,58.57
2019-03-20T13:48:54.965Z,63.90
2019-03-20T13:51:29.131Z,59.17
2019-03-20T13:54:02.280Z,57.57
2019-03-20T13:56:36.599Z,62.90
2019-03-20T13:59:10.450Z,56.67
2019-03-20T14:01:44.636Z,57.97
2019-03-20T14:04:18.750Z,59.17
2019-03-20T14:06:52.525Z,58.47
2019-03-20T14:09:26.022Z,56.87
2019-03-20T14:11:59.853Z,56.13
2019-03-20T14:14:48.673Z,58.23
2019-03-20T14:17:23.450Z,55.67
2019-03-20T14:19:57.157Z,52.87
2019-03-20T14:22:30.882Z,54.33
2019-03-20T14:25:05.116Z,54.30
2019-03-20T14:27:48.419Z,50.50
2019-03-20T14:30:23.716Z,51.97
2019-03-20T14:32:56.980Z,52.87
2019-03-20T14:35:31.239Z,47.80
2019-03-20T14:38:05.073Z,51.43
2019-03-20T14:40:38.980Z,49.47
2019-03-20T14:43:22.190Z,46.07
2019-03-20T14:45:55.660Z,49.13
2019-03-20T14:48:39.009Z,51.43
2019-03-20T14:51:12.920Z,45.77
2019-03-20T14:53:47.357Z,48.73
2019-03-20T14:56:30.543Z,53.33
2019-03-20T14:59:04.060Z,46.30
2019-03-20T15:01:37.954Z,51.70
2019-03-20T15:04:11.607Z,48.67
2019-03-20T15:06:45.559Z,46.33
2019-03-20T15:09:19.903Z,45.43
2019-03-20T15:11:54.021Z,48.23
2019-03-20T15:14:27.879Z,44.50
2019-03-20T15:17:02.038Z,44.50
2019-03-20T15:19:44.747Z,46.93
2019-03-20T15:22:33.634Z,46.83
2019-03-20T15:25:16.884Z,46.90
2019-03-20T15:27:50.649Z,46.20
2019-03-20T15:30:26.276Z,49.93
2019-03-20T15:33:00.156Z,48.20
2019-03-20T15:35:34.032Z,44.63
2019-03-20T15:38:16.533Z,44.00
2019-03-20T15:40:56.151Z,43.50
2019-03-20T15:43:25.736Z,42.60
2019-03-20T15:46:09.018Z,48.67
2019-03-20T15:48:42.591Z,50.50
2019-03-20T15:51:16.585Z,44.93
2019-03-20T15:54:00.206Z,47.00
2019-03-20T15:56:44.898Z,45.00
2019-03-20T15:59:19.815Z,48.27
2019-03-20T16:01:53.785Z,48.40
2019-03-20T16:04:39.007Z,49.60
2019-03-20T16:07:13.129Z,42.43
2019-03-20T16:09:57.253Z,44.97
2019-03-20T16:12:46.346Z,49.73
2019-03-20T16:15:20.937Z,47.90
2019-03-20T16:18:06.743Z,46.43
2019-03-20T16:20:40.770Z,48.43
2019-03-20T16:23:14.544Z,40.03
2019-03-20T16:25:48.109Z,47.27
2019-03-20T16:28:22.454Z,45.00
2019-03-20T16:30:56.889Z,48.67
2019-03-20T16:33:30.396Z,46.30
2019-03-20T16:36:05.409Z,47.10
2019-03-20T16:38:49.296Z,42.03
2019-03-20T16:41:36.836Z,42.67
2019-03-20T16:44:19.608Z,49.20
2019-03-20T16:46:53.467Z,53.67
2019-03-20T16:49:26.714Z,45.50
2019-03-20T16:52:09.970Z,47.13
2019-03-20T16:54:44.646Z,45.97
2019-03-20T16:57:28.312Z,47.20
2019-03-20T17:00:02.260Z,45.23
2019-03-20T17:02:36.565Z,45.97
2019-03-20T17:05:19.823Z,47.27
2019-03-20T17:07:53.332Z,47.10
2019-03-20T17:10:29.043Z,48.47
2019-03-20T17:13:02.909Z,47.67
2019-03-20T17:15:37.071Z,50.20
2019-03-20T17:18:19.392Z,46.90
2019-03-20T17:20:53.604Z,47.17
2019-03-20T17:23:26.979Z,46.73
2019-03-20T17:26:00.637Z,50.87
2019-03-20T17:28:33.709Z,49.43
2019-03-20T17:31:07.852Z,48.27
2019-03-20T17:33:50.706Z,49.33
2019-03-20T17:36:33.664Z,45.53
2019-03-20T17:39:16.475Z,47.10
2019-03-20T17:41:59.501Z,48.47
2019-03-20T17:44:48.011Z,43.90
2019-03-20T17:47:21.223Z,51.27
2019-03-20T17:49:54.947Z,45.93
2019-03-20T17:52:28.179Z,49.40
2019-03-20T17:55:01.971Z,51.17
2019-03-20T17:57:35.123Z,49.17
2019-03-20T18:00:24.331Z,51.17
2019-03-20T18:03:15.467Z,51.57
2019-03-20T18:05:50.011Z,46.57
2019-03-20T18:08:33.275Z,49.87
2019-03-20T18:11:07.295Z,49.80
2019-03-20T18:13:41.117Z,51.57
2019-03-20T18:16:14.930Z,48.20
2019-03-20T18:18:48.897Z,53.73
2019-03-20T18:21:32.584Z,50.33
2019-03-20T18:24:06.876Z,48.77
2019-03-20T18:26:40.329Z,50.63
2019-03-20T18:29:14.267Z,47.33
2019-03-20T18:31:57.637Z,52.10
2019-03-20T18:34:40.555Z,49.93
2019-03-20T18:37:29.501Z,53.40
2019-03-20T18:40:03.351Z,54.13
2019-03-20T18:42:37.592Z,53.63
2019-03-20T18:45:11.624Z,49.60
2019-03-20T18:47:57.023Z,53.37
2019-03-20T18:50:30.490Z,50.53
2019-03-20T18:53:04.532Z,52.87
2019-03-20T18:55:39.003Z,50.67
2019-03-20T18:58:27.762Z,48.23
2019-03-20T19:01:02.025Z,52.93
2019-03-20T19:03:36.642Z,54.83
2019-03-20T19:06:14.456Z,52.43
2019-03-20T19:09:02.784Z,52.37
2019-03-20T19:11:37.792Z,53.17
2019-03-20T19:14:11.601Z,58.13
2019-03-20T19:16:45.130Z,54.97
2019-03-20T19:19:18.312Z,58.07
2019-03-20T19:21:52.407Z,61.30
2019-03-20T19:24:29.068Z,63.13
2019-03-20T19:27:02.629Z,59.27
2019-03-20T19:29:36.273Z,65.93
2019-03-20T19:32:10.008Z,67.70
2019-03-20T19:34:54.455Z,75.53
2019-03-20T19:37:28.074Z,72.13
2019-03-20T19:40:02.068Z,66.67
2019-03-20T19:42:45.266Z,72.30
2019-03-20T19:45:27.281Z,69.30
2019-03-20T19:48:10.279Z,73.23
2019-03-20T19:50:57.081Z,77.57
2019-03-20T19:53:31.209Z,77.77
2019-03-20T19:56:14.276Z,88.27
2019-03-20T19:58:56.985Z,76.13
2019-03-20T20:01:42.676Z,82.83
2019-03-20T20:04:16.400Z,88.83
2019-03-20T20:06:58.998Z,87.43
2019-03-20T20:09:32.133Z,80.53
2019-03-20T20:12:05.414Z,86.97
2019-03-20T20:14:39.000Z,84.80
2019-03-20T20:17:12.889Z,86.80
2019-03-20T20:19:45.982Z,94.53
2019-03-20T20:22:27.918Z,99.47
2019-03-20T20:25:02.052Z,111.07
2019-03-20T20:27:36.260Z,101.67
2019-03-20T20:30:12.083Z,100.67
2019-03-20T20:32:46.250Z,106.93
2019-03-20T20:35:28.749Z,110.60
2019-03-20T20:38:02.579Z,111.03
2019-03-20T20:40:44.924Z,112.33
2019-03-20T20:43:18.349Z,118.00
2019-03-20T20:45:51.808Z,114.83
2019-03-20T20:48:24.932Z,112.57
2019-03-20T20:51:08.918Z,121.40
2019-03-20T20:53:42.079Z,121.27
2019-03-20T20:56:15.778Z,128.20
2019-03-20T20:58:51.529Z,123.80
2019-03-20T21:01:34.161Z,123.30
2019-03-20T21:04:08.629Z,133.63
2019-03-20T21:06:42.507Z,122.50
2019-03-20T21:09:16.571Z,138.60
2019-03-20T21:11:50.085Z,129.63
2019-03-20T21:14:22.924Z,141.57
2019-03-20T21:16:56.979Z,121.73
2019-03-20T21:19:38.381Z,125.30
2019-03-20T21:22:49.720Z,121.53
2019-03-20T21:25:24.048Z,123.93
2019-03-20T21:28:50.864Z,119.00
2019-03-20T21:31:43.599Z,121.17
2019-03-20T21:35:11.866Z,126.73
2019-03-20T21:38:14.718Z,129.97
2019-03-20T21:41:00.942Z,124.70
2019-03-20T21:44:23.602Z,118.53
2019-03-20T21:47:38.264Z,124.70
2019-03-20T21:51:03.707Z,117.70
2019-03-20T21:54:10.764Z,118.73
2019-03-20T21:56:57.041Z,123.20
2019-03-20T21:59:53.248Z,115.17
2019-03-20T22:02:45.831Z,118.90
2019-03-20T22:05:54.650Z,128.27
2019-03-20T22:08:29.521Z,116.07
2019-03-20T22:11:35.522Z,123.13
2019-03-20T22:14:19.149Z,131.90
2019-03-20T22:17:50.616Z,123.83
2019-03-20T22:20:36.364Z,123.97
2019-03-20T22:24:09.335Z,121.57
2019-03-20T22:27:24.040Z,122.07
2019-03-20T22:29:58.692Z,121.17
2019-03-20T22:33:28.135Z,118.93
2019-03-20T22:36:19.493Z,112.90
2019-03-20T22:39:41.733Z,118.67
2019-03-20T22:42:50.901Z,112.33
2019-03-20T22:46:15.906Z,105.10
2019-03-20T22:49:50.160Z,112.37
2019-03-20T22:52:59.173Z,111.37
2019-03-20T22:56:10.382Z,102.83
2019-03-20T22:58:42.633Z,99.90
2019-03-20T23:01:26.501Z,108.70
2019-03-20T23:04:04.645Z,109.17
2019-03-20T23:06:38.440Z,107.67
2019-03-20T23:09:12.644Z,112.03
2019-03-20T23:11:44.842Z,114.90
2019-03-20T23:14:18.551Z,113.57
2019-03-20T23:16:52.587Z,113.23
2019-03-20T23:19:26.330Z,110.27
2019-03-20T23:22:00.709Z,101.63
2019-03-20T23:24:36.293Z,106.47
2019-03-20T23:27:14.184Z,102.67
2019-03-20T23:29:48.870Z,99.33
2019-03-20T23:32:22.584Z,103.27
2019-03-20T23:34:57.908Z,101.70
2019-03-20T23:37:41.205Z,105.20
2019-03-20T23:40:15.615Z,99.83
2019-03-20T23:43:01.539Z,100.10
2019-03-20T23:45:50.663Z,102.70
2019-03-20T23:48:35.492Z,92.00
2019-03-20T23:51:12.293Z,94.53
2019-03-20T23:53:48.715Z,95.80
2019-03-20T23:56:33.304Z,99.03
2019-03-20T23:59:16.120Z,96.07
